createdAt,value
2023-04-17T00:00:40.174Z,101701.80
2023-04-17T00:01:42.690Z,101703.47
2023-04-17T00:02:44.579Z,101695.63
2023-04-17T00:03:46.534Z,101705.15
2023-04-17T00:04:48.730Z,101706.05
2023-04-17T00:05:50.793Z,101700.88
2023-04-17T00:06:52.594Z,101698.22
2023-04-17T00:07:54.420Z,101699.09
2023-04-17T00:08:56.238Z,101701.69
2023-04-17T00:09:58.032Z,101700.81
2023-04-17T00:11:07.181Z,101702.45
2023-04-17T00:12:03.482Z,101692.02
2023-04-17T00:13:05.291Z,101695.46
2023-04-17T00:14:07.086Z,101698.92
2023-04-17T00:15:08.876Z,101694.61
2023-04-17T00:16:11.145Z,101692.81
2023-04-17T00:17:12.955Z,101698.81
2023-04-17T00:18:14.754Z,101698.75
2023-04-17T00:19:16.858Z,101696.10
2023-04-17T00:20:18.686Z,101697.82
2023-04-17T00:21:20.513Z,101702.16
2023-04-17T00:22:22.319Z,101701.28
2023-04-17T00:23:24.137Z,101696.05
2023-04-17T00:24:25.932Z,101698.69
2023-04-17T00:25:27.759Z,101694.38
2023-04-17T00:26:29.567Z,101691.80
2023-04-17T00:27:31.374Z,101699.56
2023-04-17T00:28:33.195Z,101686.50
2023-04-17T00:29:34.989Z,101689.99
2023-04-17T00:30:36.896Z,101695.11
2023-04-17T00:31:38.784Z,101690.75
2023-04-17T00:32:40.627Z,101692.52
2023-04-17T00:33:42.374Z,101689.03
2023-04-17T00:34:44.156Z,101693.34
2023-04-17T00:35:45.956Z,101695.00
2023-04-17T00:36:47.814Z,101688.04
2023-04-17T00:37:49.635Z,101683.67
2023-04-17T00:38:51.440Z,101691.44
2023-04-17T00:39:53.247Z,101688.85
2023-04-17T00:40:55.064Z,101680.27
2023-04-17T00:41:56.906Z,101681.08
2023-04-17T00:42:58.713Z,101682.86
2023-04-17T00:44:00.518Z,101682.86
2023-04-17T00:45:02.352Z,101681.20
2023-04-17T00:46:04.238Z,101683.73
2023-04-17T00:47:06.143Z,101675.96
2023-04-17T00:48:07.982Z,101681.08
2023-04-17T00:49:09.825Z,101680.21
2023-04-17T00:50:12.468Z,101678.38
2023-04-17T00:51:14.273Z,101673.08
2023-04-17T00:52:16.128Z,101666.97
2023-04-17T00:53:17.978Z,101680.73
2023-04-17T00:54:19.737Z,101673.78
2023-04-17T00:55:21.565Z,101682.39
2023-04-17T00:56:23.350Z,101665.89
2023-04-17T00:57:25.187Z,101671.02
2023-04-17T00:58:26.981Z,101675.31
2023-04-17T00:59:28.796Z,101678.72
2023-04-17T01:00:30.580Z,101664.91
2023-04-17T01:01:32.474Z,101664.96
2023-04-17T01:02:34.472Z,101670.08
2023-04-17T01:03:36.530Z,101665.77
2023-04-17T01:04:38.563Z,101664.96
2023-04-17T01:05:40.359Z,101666.67
2023-04-17T01:06:42.204Z,101662.38
2023-04-17T01:07:44.055Z,101658.91
2023-04-17T01:08:45.905Z,101662.38
2023-04-17T01:09:47.688Z,101657.13
2023-04-17T01:10:49.489Z,101653.67
2023-04-17T01:11:51.334Z,101649.37
2023-04-17T01:12:53.184Z,101650.23
2023-04-17T01:13:54.984Z,101645.06
2023-04-17T01:14:56.782Z,101653.79
2023-04-17T01:15:58.592Z,101651.20
2023-04-17T01:17:00.535Z,101653.73
2023-04-17T01:18:02.425Z,101651.08
2023-04-17T01:19:04.234Z,101654.55
2023-04-17T01:20:06.260Z,101666.67
2023-04-17T01:21:08.066Z,101661.50
2023-04-17T01:22:09.865Z,101650.23
2023-04-17T01:23:11.748Z,101661.38
2023-04-17T01:24:13.518Z,101648.50
2023-04-17T01:25:15.329Z,101647.59
2023-04-17T01:26:17.141Z,101654.48
2023-04-17T01:27:18.935Z,101654.42
2023-04-17T01:28:20.786Z,101651.03
2023-04-17T01:29:22.608Z,101648.38
2023-04-17T01:30:24.422Z,101642.30
2023-04-17T01:31:26.344Z,101646.55
2023-04-17T01:32:28.342Z,101642.14
2023-04-17T01:33:30.164Z,101639.55
2023-04-17T01:34:31.997Z,101643.05
2023-04-17T01:35:33.797Z,101641.27
2023-04-17T01:36:35.594Z,101642.09
2023-04-17T01:37:37.415Z,101642.02
2023-04-17T01:38:39.274Z,101642.89
2023-04-17T01:39:41.060Z,101641.91
2023-04-17T01:40:42.959Z,101642.60
2023-04-17T01:41:44.758Z,101640.86
2023-04-17T01:42:46.567Z,101647.59
2023-04-17T01:43:48.417Z,101640.67
2023-04-17T01:44:50.117Z,101638.91
2023-04-17T01:45:51.970Z,101643.95
2023-04-17T01:46:53.870Z,101649.89
2023-04-17T01:47:55.698Z,101637.64
2023-04-17T01:48:57.532Z,101647.87
2023-04-17T01:49:59.330Z,101640.10
2023-04-17T01:51:01.126Z,101634.12
2023-04-17T01:52:02.934Z,101641.94
2023-04-17T01:53:04.752Z,101637.64
2023-04-17T01:54:06.603Z,101641.94
2023-04-17T01:55:08.420Z,101641.94
2023-04-17T01:56:10.310Z,101633.24
2023-04-17T01:57:12.154Z,101627.95
2023-04-17T01:58:13.970Z,101640.04
2023-04-17T01:59:15.786Z,101633.13
2023-04-17T02:00:17.790Z,101638.48
2023-04-17T02:01:20.952Z,101638.42
2023-04-17T02:02:22.944Z,101640.95
2023-04-17T02:03:25.045Z,101637.33
2023-04-17T02:04:27.164Z,101641.58
2023-04-17T02:05:29.111Z,101647.56
2023-04-17T02:06:30.910Z,101639.67
2023-04-17T02:07:32.735Z,101653.52
2023-04-17T02:08:34.548Z,101646.56
2023-04-17T02:09:36.414Z,101642.14
2023-04-17T02:10:38.231Z,101641.33
2023-04-17T02:11:40.057Z,101646.50
2023-04-17T02:12:41.842Z,101648.22
2023-04-17T02:13:43.656Z,101641.33
2023-04-17T02:14:45.494Z,101645.41
2023-04-17T02:15:47.336Z,101643.55
2023-04-17T02:16:49.118Z,101642.52
2023-04-17T02:17:50.977Z,101648.47
2023-04-17T02:18:52.758Z,101645.76
2023-04-17T02:19:54.610Z,101651.86
2023-04-17T02:20:56.413Z,101652.67
2023-04-17T02:21:58.225Z,101655.26
2023-04-17T02:23:00.027Z,101641.39
2023-04-17T02:24:01.833Z,101653.45
2023-04-17T02:25:03.569Z,101653.45
2023-04-17T02:26:05.579Z,101646.56
2023-04-17T02:27:07.380Z,101650.87
2023-04-17T02:28:09.195Z,101654.39
2023-04-17T02:29:11.245Z,101655.13
2023-04-17T02:30:13.482Z,101650.68
2023-04-17T02:31:15.318Z,101653.27
2023-04-17T02:32:17.112Z,101653.10
2023-04-17T02:33:18.993Z,101651.36
2023-04-17T02:34:20.810Z,101646.87
2023-04-17T02:35:22.663Z,101652.05
2023-04-17T02:36:24.485Z,101652.91
2023-04-17T02:37:26.264Z,101648.71
2023-04-17T02:38:28.062Z,101653.10
2023-04-17T02:39:29.878Z,101653.95
2023-04-17T02:40:31.736Z,101653.04
2023-04-17T02:41:33.529Z,101652.23
2023-04-17T02:42:35.334Z,101655.79
2023-04-17T02:43:37.138Z,101655.85
2023-04-17T02:44:39.996Z,101657.59
2023-04-17T02:45:41.859Z,101660.24
2023-04-17T02:46:43.696Z,101651.67
2023-04-17T02:47:45.543Z,101656.05
2023-04-17T02:48:47.360Z,101654.27
2023-04-17T02:49:49.171Z,101652.30
2023-04-17T02:50:51.018Z,101656.53
2023-04-17T02:51:52.802Z,101647.88
2023-04-17T02:52:54.599Z,101658.21
2023-04-17T02:53:56.406Z,101647.88
2023-04-17T02:54:58.231Z,101648.65
2023-04-17T02:56:00.057Z,101651.23
2023-04-17T02:57:01.875Z,101645.94
2023-04-17T02:58:03.758Z,101646.80
2023-04-17T02:59:05.561Z,101650.33
2023-04-17T03:00:07.384Z,101643.41
2023-04-17T03:01:09.252Z,101632.23
2023-04-17T03:02:11.153Z,101640.05
2023-04-17T03:03:13.164Z,101643.48
2023-04-17T03:04:15.090Z,101633.94
2023-04-17T03:05:16.851Z,101633.87
2023-04-17T03:06:18.725Z,101635.59
2023-04-17T03:07:20.539Z,101643.41
2023-04-17T03:08:22.330Z,101641.57
2023-04-17T03:09:24.129Z,101638.92
2023-04-17T03:10:25.931Z,101637.98
2023-04-17T03:11:27.825Z,101643.16
2023-04-17T03:12:29.633Z,101641.44
2023-04-17T03:13:31.490Z,101649.01
2023-04-17T03:14:33.262Z,101647.16
2023-04-17T03:15:35.074Z,101644.45
2023-04-17T03:16:36.939Z,101635.76
2023-04-17T03:17:38.882Z,101652.08
2023-04-17T03:18:40.774Z,101637.37
2023-04-17T03:19:42.577Z,101641.61
2023-04-17T03:20:44.377Z,101642.34
2023-04-17T03:21:46.228Z,101646.64
2023-04-17T03:22:48.028Z,101641.48
2023-04-17T03:23:49.824Z,101642.34
2023-04-17T03:24:51.625Z,101643.31
2023-04-17T03:25:53.443Z,101642.48
2023-04-17T03:26:55.278Z,101640.86
2023-04-17T03:27:57.074Z,101639.15
2023-04-17T03:28:58.871Z,101640.02
2023-04-17T03:30:00.682Z,101640.86
2023-04-17T03:31:02.530Z,101638.41
2023-04-17T03:32:04.489Z,101656.57
2023-04-17T03:33:06.342Z,101641.93
2023-04-17T03:34:08.217Z,101633.30
2023-04-17T03:35:10.024Z,101636.70
2023-04-17T03:36:11.892Z,101630.72
2023-04-17T03:37:13.718Z,101639.28
2023-04-17T03:38:15.540Z,101626.42
2023-04-17T03:39:17.335Z,101632.69
2023-04-17T03:40:19.139Z,101623.16
2023-04-17T03:41:20.934Z,101626.67
2023-04-17T03:42:22.779Z,101626.73
2023-04-17T03:43:24.693Z,101624.28
2023-04-17T03:44:26.490Z,101624.28
2023-04-17T03:45:28.298Z,101622.01
2023-04-17T03:46:30.308Z,101626.44
2023-04-17T03:47:32.287Z,101630.92
2023-04-17T03:48:34.058Z,101633.58
2023-04-17T03:49:35.849Z,101642.20
2023-04-17T03:50:37.668Z,101626.75
2023-04-17T03:51:39.466Z,101629.40
2023-04-17T03:52:41.309Z,101629.45
2023-04-17T03:53:43.085Z,101627.91
2023-04-17T03:54:44.916Z,101638.31
2023-04-17T03:55:46.715Z,101627.13
2023-04-17T03:56:48.521Z,101626.37
2023-04-17T03:57:50.980Z,101624.72
2023-04-17T03:58:52.795Z,101631.91
2023-04-17T03:59:54.586Z,101625.18
2023-04-17T04:00:56.514Z,101627.95
2023-04-17T04:01:58.494Z,101616.06
2023-04-17T04:03:00.580Z,101630.09
2023-04-17T04:04:02.444Z,101620.78
2023-04-17T04:05:04.418Z,101630.45
2023-04-17T04:06:06.213Z,101627.97
2023-04-17T04:07:07.998Z,101620.44
2023-04-17T04:08:09.852Z,101625.83
2023-04-17T04:09:11.820Z,101625.25
2023-04-17T04:10:14.803Z,101619.17
2023-04-17T04:11:16.598Z,101618.53
2023-04-17T04:12:18.400Z,101616.11
2023-04-17T04:13:20.242Z,101615.47
2023-04-17T04:14:22.049Z,101626.87
2023-04-17T04:15:23.906Z,101617.52
2023-04-17T04:16:25.744Z,101614.98
2023-04-17T04:17:27.552Z,101607.39
2023-04-17T04:18:29.393Z,101622.25
2023-04-17T04:19:31.186Z,101613.77
2023-04-17T04:20:32.986Z,101610.53
2023-04-17T04:21:34.828Z,101614.09
2023-04-17T04:22:36.662Z,101605.72
2023-04-17T04:23:38.527Z,101610.96
2023-04-17T04:24:40.309Z,101602.42
2023-04-17T04:25:42.131Z,101598.22
2023-04-17T04:26:44.024Z,101596.58
2023-04-17T04:27:45.815Z,101585.36
2023-04-17T04:28:47.683Z,101601.98
2023-04-17T04:29:49.974Z,101599.55
2023-04-17T04:30:51.871Z,101590.97
2023-04-17T04:31:53.796Z,101593.56
2023-04-17T04:32:55.714Z,101584.20
2023-04-17T04:33:57.510Z,101581.66
2023-04-17T04:34:59.311Z,101584.35
2023-04-17T04:36:01.399Z,101584.45
2023-04-17T04:37:03.567Z,101586.28
2023-04-17T04:38:05.364Z,101571.59
2023-04-17T04:39:07.194Z,101575.96
2023-04-17T04:40:09.710Z,101581.34
2023-04-17T04:41:11.508Z,101579.73
2023-04-17T04:42:13.333Z,101575.49
2023-04-17T04:43:15.134Z,101566.86
2023-04-17T04:44:16.985Z,101581.65
2023-04-17T04:45:18.806Z,101581.75
2023-04-17T04:46:20.669Z,101572.34
2023-04-17T04:47:22.551Z,101575.79
2023-04-17T04:48:24.325Z,101563.69
2023-04-17T04:49:26.177Z,101578.34
2023-04-17T04:50:27.975Z,101567.91
2023-04-17T04:51:29.773Z,101571.38
2023-04-17T04:52:31.602Z,101569.65
2023-04-17T04:53:33.404Z,101567.11
2023-04-17T04:54:35.260Z,101569.80
2023-04-17T04:55:37.075Z,101562.16
2023-04-17T04:56:38.881Z,101562.16
2023-04-17T04:57:40.676Z,101579.55
2023-04-17T04:58:42.492Z,101567.53
2023-04-17T04:59:44.342Z,101582.14
2023-04-17T05:00:46.210Z,101563.84
2023-04-17T05:01:47.981Z,101566.38
2023-04-17T05:02:49.941Z,101568.06
2023-04-17T05:03:52.106Z,101562.82
2023-04-17T05:04:54.158Z,101562.92
2023-04-17T05:05:55.918Z,101580.22
2023-04-17T05:06:57.790Z,101574.31
2023-04-17T05:07:59.474Z,101576.13
2023-04-17T05:09:01.274Z,101583.92
2023-04-17T05:10:03.114Z,101592.72
2023-04-17T05:11:04.809Z,101599.83
2023-04-17T05:12:06.636Z,101592.96
2023-04-17T05:13:08.442Z,101584.35
2023-04-17T05:14:10.243Z,101587.81
2023-04-17T05:15:12.119Z,101589.73
2023-04-17T05:16:14.162Z,101601.08
2023-04-17T05:17:15.932Z,101588.22
2023-04-17T05:18:17.746Z,101601.34
2023-04-17T05:19:19.547Z,101592.80
2023-04-17T05:20:21.514Z,101595.48
2023-04-17T05:21:23.328Z,101599.02
2023-04-17T05:22:25.131Z,101599.02
2023-04-17T05:23:26.948Z,101586.91
2023-04-17T05:24:28.772Z,101590.38
2023-04-17T05:25:30.601Z,101595.63
2023-04-17T05:26:32.416Z,101599.98
2023-04-17T05:27:34.217Z,101600.03
2023-04-17T05:28:35.917Z,101601.81
2023-04-17T05:29:37.735Z,101599.30
2023-04-17T05:30:39.578Z,101589.79
2023-04-17T05:31:41.423Z,101584.55
2023-04-17T05:32:43.283Z,101585.45
2023-04-17T05:33:45.098Z,101587.23
2023-04-17T05:34:46.919Z,101598.63
2023-04-17T05:35:48.867Z,101578.67
2023-04-17T05:36:50.678Z,101590.88
2023-04-17T05:37:52.474Z,101597.80
2023-04-17T05:38:54.308Z,101589.92
2023-04-17T05:39:56.103Z,101601.27
2023-04-17T05:40:57.945Z,101593.42
2023-04-17T05:41:59.746Z,101610.66
2023-04-17T05:43:01.540Z,101595.94
2023-04-17T05:44:03.357Z,101588.14
2023-04-17T05:45:05.175Z,101601.22
2023-04-17T05:46:07.182Z,101596.84
2023-04-17T05:47:08.919Z,101604.73
2023-04-17T05:48:10.765Z,101609.92
2023-04-17T05:49:12.735Z,101588.37
2023-04-17T05:50:16.194Z,101605.78
2023-04-17T05:51:18.015Z,101610.24
2023-04-17T05:52:19.832Z,101606.82
2023-04-17T05:53:21.649Z,101606.09
2023-04-17T05:54:23.453Z,101609.64
2023-04-17T05:55:25.180Z,101603.58
2023-04-17T05:56:27.028Z,101593.14
2023-04-17T05:57:28.864Z,101593.19
2023-04-17T05:58:30.674Z,101596.70
2023-04-17T05:59:32.486Z,101623.55
2023-04-17T06:00:34.300Z,101595.87
2023-04-17T06:01:36.154Z,101582.97
2023-04-17T06:02:38.168Z,101608.14
2023-04-17T06:03:40.206Z,101594.37
2023-04-17T06:04:42.402Z,101595.37
2023-04-17T06:05:44.467Z,101587.65
2023-04-17T06:06:46.270Z,101588.56
2023-04-17T06:07:48.073Z,101581.67
2023-04-17T06:08:49.882Z,101590.46
2023-04-17T06:09:51.589Z,101600.86
2023-04-17T06:10:53.396Z,101595.70
2023-04-17T06:11:55.314Z,101593.14
2023-04-17T06:12:57.065Z,101586.30
2023-04-17T06:13:58.846Z,101593.31
2023-04-17T06:15:01.029Z,101590.80
2023-04-17T06:16:03.169Z,101586.43
2023-04-17T06:17:05.086Z,101581.36
2023-04-17T06:18:07.105Z,101572.89
2023-04-17T06:19:09.430Z,101572.89
2023-04-17T06:20:11.874Z,101564.31
2023-04-17T06:21:13.563Z,101560.02
2023-04-17T06:22:15.271Z,101578.30
2023-04-17T06:23:17.082Z,101565.34
2023-04-17T06:24:18.964Z,101555.80
2023-04-17T06:25:20.789Z,101559.39
2023-04-17T06:26:22.601Z,101565.45
2023-04-17T06:27:24.489Z,101556.83
2023-04-17T06:28:26.285Z,101546.43
2023-04-17T06:29:28.094Z,101550.84
2023-04-17T06:30:29.927Z,101553.52
2023-04-17T06:31:31.830Z,101559.70
2023-04-17T06:32:33.932Z,101582.36
2023-04-17T06:33:35.779Z,101575.50
2023-04-17T06:34:46.041Z,101562.58
2023-04-17T06:35:42.423Z,101558.45
2023-04-17T06:36:44.205Z,101554.27
2023-04-17T06:37:46.045Z,101562.91
2023-04-17T06:38:47.844Z,101548.20
2023-04-17T06:39:49.667Z,101561.25
2023-04-17T06:40:52.577Z,101569.13
2023-04-17T06:41:54.585Z,101554.39
2023-04-17T06:42:56.428Z,101562.23
2023-04-17T06:43:58.228Z,101548.50
2023-04-17T06:45:00.040Z,101569.34
2023-04-17T06:46:01.901Z,101575.50
2023-04-17T06:47:03.669Z,101550.41
2023-04-17T06:48:05.770Z,101563.53
2023-04-17T06:49:07.664Z,101552.36
2023-04-17T06:50:09.467Z,101556.70
2023-04-17T06:51:12.296Z,101568.87
2023-04-17T06:52:14.129Z,101574.30
2023-04-17T06:53:16.074Z,101574.30
2023-04-17T06:54:17.884Z,101542.23
2023-04-17T06:55:19.814Z,101558.81
2023-04-17T06:56:21.590Z,101558.92
2023-04-17T06:57:23.390Z,101545.97
2023-04-17T06:58:25.207Z,101565.06
2023-04-17T06:59:27.022Z,101544.37
2023-04-17T07:00:28.830Z,101533.12
2023-04-17T07:01:30.783Z,101533.18
2023-04-17T07:02:32.743Z,101550.61
2023-04-17T07:03:34.770Z,101531.61
2023-04-17T07:04:36.907Z,101550.77
2023-04-17T07:05:38.698Z,101541.26
2023-04-17T07:06:40.500Z,101533.53
2023-04-17T07:07:42.312Z,101534.38
2023-04-17T07:08:44.468Z,101527.43
2023-04-17T07:09:46.316Z,101532.73
2023-04-17T07:10:48.089Z,101532.80
2023-04-17T07:11:49.908Z,101518.96
2023-04-17T07:12:51.677Z,101519.86
2023-04-17T07:13:53.541Z,101522.56
2023-04-17T07:14:55.347Z,101528.80
2023-04-17T07:15:57.186Z,101524.48
2023-04-17T07:16:59.224Z,101518.48
2023-04-17T07:18:01.106Z,101531.63
2023-04-17T07:19:02.917Z,101517.80
2023-04-17T07:20:05.148Z,101518.72
2023-04-17T07:21:06.986Z,101510.06
2023-04-17T07:22:08.774Z,101517.91
2023-04-17T07:23:10.584Z,101516.20
2023-04-17T07:24:12.417Z,101516.27
2023-04-17T07:25:14.297Z,101519.83
2023-04-17T07:26:16.089Z,101531.12
2023-04-17T07:27:17.884Z,101509.45
2023-04-17T07:28:19.693Z,101520.80
2023-04-17T07:29:21.519Z,101525.20
2023-04-17T07:30:23.353Z,101515.67
2023-04-17T07:31:25.219Z,101512.22
2023-04-17T07:32:27.012Z,101508.80
2023-04-17T07:33:28.776Z,101511.49
2023-04-17T07:34:30.620Z,101509.83
2023-04-17T07:35:32.433Z,101522.92
2023-04-17T07:36:34.240Z,101506.45
2023-04-17T07:37:36.042Z,101515.20
2023-04-17T07:38:40.328Z,101516.13
2023-04-17T07:39:41.496Z,101531.86
2023-04-17T07:40:43.292Z,101509.32
2023-04-17T07:41:45.153Z,101492.83
2023-04-17T07:42:46.884Z,101491.98
2023-04-17T07:43:48.687Z,101487.75
2023-04-17T07:44:50.548Z,101499.95
2023-04-17T07:45:52.335Z,101504.34
2023-04-17T07:46:54.181Z,101486.10
2023-04-17T07:47:55.999Z,101499.16
2023-04-17T07:48:57.766Z,101507.02
2023-04-17T07:49:59.620Z,101498.35
2023-04-17T07:51:01.489Z,101509.69
2023-04-17T07:52:03.283Z,101497.58
2023-04-17T07:53:05.083Z,101494.97
2023-04-17T07:54:06.884Z,101492.34
2023-04-17T07:55:08.750Z,101483.61
2023-04-17T07:56:12.681Z,101475.78
2023-04-17T07:57:14.245Z,101480.17
2023-04-17T07:58:16.049Z,101480.17
2023-04-17T07:59:17.874Z,101501.92
2023-04-17T08:00:19.839Z,101467.13
2023-04-17T08:01:21.657Z,101490.62
2023-04-17T08:02:23.606Z,101474.95
2023-04-17T08:03:25.737Z,101481.97
2023-04-17T08:04:27.950Z,101473.21
2023-04-17T08:05:30.136Z,101461.06
2023-04-17T08:06:31.988Z,101466.31
2023-04-17T08:07:33.795Z,101458.48
2023-04-17T08:08:35.616Z,101448.94
2023-04-17T08:09:37.445Z,101467.26
2023-04-17T08:10:39.278Z,101455.17
2023-04-17T08:11:55.660Z,101440.37
2023-04-17T08:12:45.314Z,101450.86
2023-04-17T08:13:47.115Z,101448.25
2023-04-17T08:14:48.928Z,101458.69
2023-04-17T08:15:50.765Z,101459.58
2023-04-17T08:16:52.711Z,101482.23
2023-04-17T08:17:54.658Z,101454.41
2023-04-17T08:18:56.518Z,101456.18
2023-04-17T08:19:58.439Z,101457.03
2023-04-17T08:21:00.312Z,101451.83
2023-04-17T08:22:02.123Z,101464.08
2023-04-17T08:23:03.934Z,101447.52
2023-04-17T08:24:05.762Z,101470.16
2023-04-17T08:25:07.574Z,101446.66
2023-04-17T08:26:09.501Z,101460.69
2023-04-17T08:27:11.315Z,101441.49
2023-04-17T08:28:13.070Z,101449.40
2023-04-17T08:29:15.111Z,101462.45
2023-04-17T08:30:18.757Z,101438.09
2023-04-17T08:31:20.654Z,101432.02
2023-04-17T08:32:22.562Z,101469.47
2023-04-17T08:33:24.353Z,101437.27
2023-04-17T08:34:26.159Z,101452.95
2023-04-17T08:35:27.961Z,101445.12
2023-04-17T08:36:29.792Z,101460.79
2023-04-17T08:37:31.599Z,101439.03
2023-04-17T08:38:33.413Z,101481.66
2023-04-17T08:39:35.221Z,101425.95
2023-04-17T08:40:37.028Z,101464.25
2023-04-17T08:41:38.872Z,101448.59
2023-04-17T08:42:40.681Z,101429.47
2023-04-17T08:43:42.507Z,101446.94
2023-04-17T08:44:44.325Z,101439.97
2023-04-17T08:45:46.168Z,101439.12
2023-04-17T08:46:48.026Z,101429.54
2023-04-17T08:47:49.903Z,101442.64
2023-04-17T08:48:52.305Z,101451.34
2023-04-17T08:49:54.139Z,101435.63
2023-04-17T08:50:55.957Z,101422.55
2023-04-17T08:51:57.791Z,101421.72
2023-04-17T08:52:59.622Z,101421.76
2023-04-17T08:54:01.440Z,101422.64
2023-04-17T08:55:03.222Z,101445.34
2023-04-17T08:56:06.893Z,101417.53
2023-04-17T08:57:08.765Z,101424.51
2023-04-17T08:58:10.565Z,101418.42
2023-04-17T08:59:12.651Z,101421.91
2023-04-17T09:00:14.724Z,101421.05
2023-04-17T09:01:16.649Z,101397.55
2023-04-17T09:02:18.699Z,101410.63
2023-04-17T09:03:20.954Z,101414.13
2023-04-17T09:04:22.984Z,101407.20
2023-04-17T09:05:24.928Z,101411.59
2023-04-17T09:06:26.734Z,101417.73
2023-04-17T09:07:28.593Z,101418.62
2023-04-17T09:08:30.389Z,101407.36
2023-04-17T09:09:32.192Z,101410.86
2023-04-17T09:10:34.065Z,101406.56
2023-04-17T09:11:35.889Z,101394.37
2023-04-17T09:12:37.717Z,101397.02
2023-04-17T09:13:39.524Z,101421.47
2023-04-17T09:14:41.334Z,101383.12
2023-04-17T09:15:43.181Z,101424.09
2023-04-17T09:16:45.061Z,101398.80
2023-04-17T09:17:46.958Z,101390.97
2023-04-17T09:18:48.888Z,101386.63
2023-04-17T09:19:50.724Z,101404.94
2023-04-17T09:20:52.517Z,101397.11
2023-04-17T09:21:54.319Z,101418.92
2023-04-17T09:22:56.135Z,101384.95
2023-04-17T09:23:57.937Z,101412.82
2023-04-17T09:24:59.746Z,101393.66
2023-04-17T09:26:01.578Z,101388.44
2023-04-17T09:27:03.368Z,101382.36
2023-04-17T09:28:05.204Z,101396.30
2023-04-17T09:29:07.007Z,101395.44
2023-04-17T09:30:09.422Z,101387.62
2023-04-17T09:31:12.385Z,101439.09
2023-04-17T09:32:14.350Z,101391.14
2023-04-17T09:33:16.203Z,101391.16
2023-04-17T09:34:17.895Z,101418.23
2023-04-17T09:35:19.610Z,101392.11
2023-04-17T09:36:22.217Z,101400.83
2023-04-17T09:37:24.287Z,101400.89
2023-04-17T09:38:26.119Z,101400.89
2023-04-17T09:39:27.916Z,101400.06
2023-04-17T09:40:29.726Z,101396.55
2023-04-17T09:41:31.539Z,101419.24
2023-04-17T09:42:33.238Z,101454.17
2023-04-17T09:43:35.068Z,101412.31
2023-04-17T09:44:36.984Z,101401.84
2023-04-17T09:45:38.872Z,101407.09
2023-04-17T09:46:40.775Z,101387.88
2023-04-17T09:47:42.505Z,101394.86
2023-04-17T09:48:44.313Z,101394.02
2023-04-17T09:49:46.121Z,101396.63
2023-04-17T09:50:47.914Z,101398.37
2023-04-17T09:51:49.728Z,101395.77
2023-04-17T09:52:51.509Z,101398.39
2023-04-17T09:53:53.342Z,101409.77
2023-04-17T09:54:55.150Z,101400.16
2023-04-17T09:55:56.955Z,101402.80
2023-04-17T09:56:58.778Z,101406.31
2023-04-17T09:58:00.576Z,101401.95
2023-04-17T09:59:02.428Z,101399.34
2023-04-17T10:00:04.252Z,101414.17
2023-04-17T10:01:06.109Z,101394.14
2023-04-17T10:02:08.111Z,101397.64
2023-04-17T10:03:10.208Z,101408.12
2023-04-17T10:04:12.672Z,101395.03
2023-04-17T10:05:15.000Z,101395.05
2023-04-17T10:06:16.922Z,101404.66
2023-04-17T10:07:18.728Z,101380.24
2023-04-17T10:08:20.516Z,101382.87
2023-04-17T10:09:22.344Z,101389.83
2023-04-17T10:10:24.141Z,101409.07
2023-04-17T10:11:25.947Z,101402.08
2023-04-17T10:12:27.784Z,101424.78
2023-04-17T10:13:29.590Z,101411.70
2023-04-17T10:14:31.448Z,101401.23
2023-04-17T10:15:33.242Z,101392.48
2023-04-17T10:16:35.122Z,101374.17
2023-04-17T10:17:36.913Z,101384.69
2023-04-17T10:18:38.721Z,101388.16
2023-04-17T10:19:40.520Z,101381.20
2023-04-17T10:20:42.340Z,101389.97
2023-04-17T10:21:44.142Z,101397.82
2023-04-17T10:22:45.987Z,101390.84
2023-04-17T10:23:47.769Z,101385.61
2023-04-17T10:24:49.645Z,101403.08
2023-04-17T10:25:51.474Z,101388.22
2023-04-17T10:26:53.310Z,101395.22
2023-04-17T10:27:55.126Z,101382.14
2023-04-17T10:28:56.949Z,101387.38
2023-04-17T10:29:58.781Z,101386.49
2023-04-17T10:31:00.700Z,101403.11
2023-04-17T10:32:02.509Z,101384.78
2023-04-17T10:33:04.321Z,101404.88
2023-04-17T10:34:06.096Z,101396.13
2023-04-17T10:35:07.978Z,101383.04
2023-04-17T10:36:10.629Z,101397.04
2023-04-17T10:37:12.461Z,101387.42
2023-04-17T10:38:14.247Z,101414.47
2023-04-17T10:39:16.091Z,101387.42
2023-04-17T10:40:17.891Z,101396.13
2023-04-17T10:41:19.713Z,101384.80
2023-04-17T10:42:21.506Z,101371.72
2023-04-17T10:43:23.320Z,101371.72
2023-04-17T10:44:25.313Z,101369.11
2023-04-17T10:45:27.154Z,101387.45
2023-04-17T10:46:29.099Z,101390.95
2023-04-17T10:47:31.003Z,101422.39
2023-04-17T10:48:32.808Z,101409.30
2023-04-17T10:49:34.688Z,101387.48
2023-04-17T10:50:36.592Z,101387.48
2023-04-17T10:51:38.391Z,101377.00
2023-04-17T10:52:40.382Z,101373.52
2023-04-17T10:53:42.521Z,101380.56
2023-04-17T10:54:44.333Z,101370.08
2023-04-17T10:55:46.194Z,101391.04
2023-04-17T10:56:47.996Z,101381.42
2023-04-17T10:57:49.781Z,101370.08
2023-04-17T10:58:51.581Z,101363.09
2023-04-17T10:59:53.383Z,101373.57
2023-04-17T11:00:55.302Z,101375.33
2023-04-17T11:01:57.221Z,101374.44
2023-04-17T11:02:59.124Z,101366.59
2023-04-17T11:04:01.009Z,101355.25
2023-04-17T11:05:02.786Z,101367.49
2023-04-17T11:06:04.720Z,101366.59
2023-04-17T11:07:06.505Z,101362.25
2023-04-17T11:08:08.318Z,101367.50
2023-04-17T11:09:10.123Z,101368.38
2023-04-17T11:10:11.931Z,101359.65
2023-04-17T11:11:13.947Z,101364.03
2023-04-17T11:12:16.418Z,101378.00
2023-04-17T11:13:18.074Z,101345.69
2023-04-17T11:14:19.882Z,101378.88
2023-04-17T11:15:21.682Z,101362.28
2023-04-17T11:16:23.563Z,101363.14
2023-04-17T11:17:25.322Z,101348.31
2023-04-17T11:18:27.099Z,101344.80
2023-04-17T11:19:28.890Z,101348.31
2023-04-17T11:20:30.715Z,101340.45
2023-04-17T11:21:32.545Z,101347.42
2023-04-17T11:22:34.354Z,101340.45
2023-04-17T11:23:36.147Z,101367.53
2023-04-17T11:24:37.935Z,101345.70
2023-04-17T11:25:39.789Z,101371.92
2023-04-17T11:26:41.578Z,101358.81
2023-04-17T11:27:43.364Z,101366.67
2023-04-17T11:28:45.174Z,101357.05
2023-04-17T11:29:46.995Z,101350.08
2023-04-17T11:30:48.952Z,101352.70
2023-04-17T11:31:50.925Z,101369.30
2023-04-17T11:32:52.818Z,101399.89
2023-04-17T11:33:54.551Z,101371.05
2023-04-17T11:34:56.384Z,101378.92
2023-04-17T11:35:58.233Z,101359.67
2023-04-17T11:37:00.053Z,101343.08
2023-04-17T11:38:01.824Z,101339.56
2023-04-17T11:39:03.793Z,101330.83
2023-04-17T11:40:05.750Z,101326.45
2023-04-17T11:41:07.563Z,101325.59
2023-04-17T11:42:09.307Z,101329.97
2023-04-17T11:43:11.127Z,101345.70
2023-04-17T11:44:12.898Z,101356.19
2023-04-17T11:45:14.604Z,101331.73
2023-04-17T11:46:16.511Z,101337.84